메인 페이지
METAR-TAF:

METAR-TAF

공항 :

네타지 수바스 찬드라 보스 국제공항

콜카타, 인도

위도: 22-39N, 경도: 088-27E, 고도: 4m

현재 날씨관측

예보는 21분 전, 17:30시(UTC)에 발표되었습니다.
8kt
온도 29°C
습도 94%
기압 1008 hPa
시정: 3500m
고도 1800ft 상공 구름 보통
고도 10000ft 상공 구름 보통
연무

METAR: VECC 311730Z 19008KT 3500 HZ SCT018 SCT100 29/28 Q1008 NOSIG

시각: 23:21 (17:51 UTC)

예보

예보는 51분 전, 17:00시(UTC)에 발표되었습니다.
예보 대상 시간: 31일 18시부터 01일 24시까지 (UTC)
남남서5kt
시정: 3200m
고도 1800ft 상공 구름 보통
고도 10000ft 상공 구름 보통
연무
일시적
31일 19시부터 31일 23시까지 (UTC)
서북서15kt, 순간 최대 풍속 25kt
시정: 2000m
고도 1500ft 상공 구름 보통
고도 2500ft 상공 구름 조금, 적란운.
고도 9000ft 상공 흐림
뇌우, 비
전환 중
01일 00시부터 01일 02시까지 (UTC)
kt
시정: 2500m
연무
전환 중
01일 03시부터 01일 05시까지 (UTC)
5kt
시정: 3500m
연무
일시적
01일 08시부터 01일 12시까지 (UTC)
서북서15kt, 순간 최대 풍속 25kt
시정: 2000m
고도 1500ft 상공 구름 보통
고도 2500ft 상공 구름 조금, 적란운.
고도 9000ft 상공 흐림
뇌우, 비
전환 중
01일 22시부터 01일 24시까지 (UTC)
kt
시정: 2500m
연무

TAF: VECC 311700Z 3118/0124 20005KT 3200 HZ SCT018 SCT100 TEMPO 3119/3123 29015G25KT 2000 TSRA SCT015 FEW025CB OVC090 BECMG 0100/0102 00000KT 2500 HZ BECMG 0103/0105 18005KT 3500 HZ TEMPO 0108/0112 29015G25KT 2000 TSRA SCT015 FEW025CB OVC090 BECMG 0122/0124 00000KT 2500 HZ

4,000개 이상의 공항 관측 자료 및 예보 (METAR 및 TAF 보고).

지도상에서 검색 가능한 기상관측소가 노란 점과 빨간 점으로 표시되어 있습니다.

기상관측소 명을 보려면 표시 위로 마우스를 이동하세요.

날씨 관측과 예보를 보려면 클릭하세요.

지도 변경 : 확대하려면 엑스 표시가 있는 녹색 버튼, 축소하려면 빼기 표시가 있는 녹색 버튼, 다음 페이지의 지도를 보려면 녹색 화살표를 클릭하세요.


METAR-TAF: